createdAt,value
2023-03-07T00:03:39.482Z,0.20
2023-03-07T00:08:42.356Z,0.18
2023-03-07T00:13:45.319Z,0.26
2023-03-07T00:18:49.126Z,0.31
2023-03-07T00:23:53.457Z,0.68
2023-03-07T00:28:56.490Z,0.88
2023-03-07T00:33:59.464Z,0.87
2023-03-07T00:39:02.891Z,0.84
2023-03-07T00:44:06.065Z,0.99
2023-03-07T00:49:09.065Z,1.02
2023-03-07T00:54:12.231Z,1.14
2023-03-07T00:59:15.252Z,1.28
2023-03-07T01:04:18.468Z,1.30
2023-03-07T01:09:21.609Z,1.26
2023-03-07T01:14:24.709Z,1.52
2023-03-07T01:19:27.704Z,1.24
2023-03-07T01:24:30.709Z,1.56
2023-03-07T01:29:34.215Z,1.34
2023-03-07T01:34:37.547Z,0.79
2023-03-07T01:39:40.335Z,0.24
2023-03-07T01:45:12.826Z,0.15
2023-03-07T01:50:21.604Z,-0.02
2023-03-07T01:55:30.384Z,-0.08
2023-03-07T02:00:41.726Z,-0.17
2023-03-07T02:05:57.173Z,-0.30
2023-03-07T02:11:02.094Z,-0.17
2023-03-07T02:16:06.332Z,0.20
2023-03-07T02:21:40.420Z,0.38
2023-03-07T02:26:52.334Z,0.40
2023-03-07T02:31:55.491Z,0.49
2023-03-07T02:37:16.646Z,0.23
2023-03-07T02:42:26.493Z,0.46
2023-03-07T02:47:38.918Z,0.45
2023-03-07T02:52:43.230Z,0.33
2023-03-07T02:57:46.392Z,0.52
2023-03-07T03:02:49.804Z,0.64
2023-03-07T03:07:55.468Z,0.71
2023-03-07T03:12:59.447Z,0.68
2023-03-07T03:18:03.193Z,0.88
2023-03-07T03:23:06.783Z,0.81
2023-03-07T03:28:10.832Z,0.71
2023-03-07T03:33:14.049Z,0.72
2023-03-07T03:38:17.346Z,0.67
2023-03-07T03:43:20.549Z,0.41
2023-03-07T03:48:23.837Z,0.22
2023-03-07T03:53:27.244Z,0.22
2023-03-07T03:58:30.879Z,0.21
2023-03-07T04:03:43.855Z,0.18
2023-03-07T04:08:47.730Z,0.58
2023-03-07T04:13:51.217Z,1.14
2023-03-07T04:18:55.717Z,1.67
2023-03-07T04:23:58.968Z,1.83
2023-03-07T04:29:05.759Z,2.38
2023-03-07T04:34:13.410Z,3.26
2023-03-07T04:39:16.136Z,4.61
2023-03-07T04:44:21.484Z,5.88
2023-03-07T04:49:24.441Z,6.99
2023-03-07T04:54:27.624Z,8.15
2023-03-07T04:59:31.314Z,8.59
2023-03-07T05:04:34.779Z,9.22
2023-03-07T05:09:37.956Z,10.84
2023-03-07T05:14:40.869Z,12.13
2023-03-07T05:19:43.915Z,12.32
2023-03-07T05:24:47.302Z,12.30
2023-03-07T05:29:50.555Z,13.07
2023-03-07T05:34:58.831Z,13.15
2023-03-07T05:40:02.362Z,13.99
2023-03-07T05:45:07.420Z,14.30
2023-03-07T05:50:11.521Z,14.21
2023-03-07T05:55:15.965Z,14.23
2023-03-07T06:00:37.864Z,15.16
2023-03-07T06:05:41.870Z,15.97
2023-03-07T06:11:17.476Z,16.70
2023-03-07T06:16:21.396Z,15.79
2023-03-07T06:21:30.893Z,15.18
2023-03-07T06:26:46.481Z,15.88
2023-03-07T06:31:56.365Z,15.10
2023-03-07T06:37:41.602Z,15.00
2023-03-07T06:42:59.366Z,15.09
2023-03-07T06:48:03.238Z,15.78
2023-03-07T06:53:13.261Z,14.68
2023-03-07T06:59:20.167Z,14.36
2023-03-07T07:04:23.379Z,13.60
2023-03-07T07:09:27.939Z,13.22
2023-03-07T07:14:31.385Z,12.86
2023-03-07T07:19:34.712Z,11.84
2023-03-07T07:25:19.254Z,10.58
2023-03-07T07:30:38.745Z,10.06
2023-03-07T07:35:50.370Z,9.18
2023-03-07T07:41:00.380Z,8.99
2023-03-07T07:46:21.853Z,8.60
2023-03-07T07:51:26.864Z,7.99
2023-03-07T07:56:31.169Z,7.80
2023-03-07T08:01:34.149Z,7.81
2023-03-07T08:06:37.635Z,7.91
2023-03-07T08:11:41.314Z,7.69
2023-03-07T08:16:44.406Z,7.50
2023-03-07T08:21:48.590Z,7.85
2023-03-07T08:26:51.735Z,7.81
2023-03-07T08:31:54.934Z,7.68
2023-03-07T08:36:57.674Z,7.76
2023-03-07T08:42:12.174Z,7.98
2023-03-07T08:47:15.413Z,8.06
2023-03-07T08:53:01.693Z,8.12
2023-03-07T08:58:05.076Z,8.41
2023-03-07T09:04:12.642Z,8.54
2023-03-07T09:09:16.096Z,8.68
2023-03-07T09:14:19.204Z,8.90
2023-03-07T09:19:24.973Z,8.84
2023-03-07T09:24:27.819Z,9.27
2023-03-07T09:29:30.772Z,9.20
2023-03-07T09:34:33.915Z,9.29
2023-03-07T09:39:36.921Z,9.21
2023-03-07T09:45:04.508Z,8.96
2023-03-07T09:51:11.825Z,9.39
2023-03-07T09:56:27.729Z,9.55
2023-03-07T10:01:38.877Z,9.72
2023-03-07T10:06:44.044Z,10.18
2023-03-07T10:11:58.072Z,9.85
2023-03-07T10:17:21.558Z,9.84
2023-03-07T10:22:43.397Z,9.59
2023-03-07T10:28:06.392Z,9.46
2023-03-07T10:33:19.082Z,9.86
2023-03-07T10:38:33.832Z,10.16
2023-03-07T10:43:43.479Z,10.19
2023-03-07T10:48:51.860Z,9.06
2023-03-07T10:53:57.556Z,9.37
2023-03-07T10:59:09.826Z,9.32
2023-03-07T11:04:24.659Z,8.97
2023-03-07T11:09:36.031Z,8.74
2023-03-07T11:14:50.664Z,9.18
2023-03-07T11:19:58.007Z,8.76
2023-03-07T11:25:15.732Z,8.79
2023-03-07T11:31:01.071Z,8.99
2023-03-07T11:36:35.752Z,8.91
2023-03-07T11:41:46.840Z,8.90
2023-03-07T11:47:02.165Z,9.40
2023-03-07T11:52:36.662Z,8.88
2023-03-07T11:57:51.275Z,9.20
2023-03-07T12:03:22.190Z,9.03
2023-03-07T12:08:33.902Z,8.88
2023-03-07T12:13:56.854Z,8.84
2023-03-07T12:19:27.647Z,8.61
2023-03-07T12:24:46.096Z,8.81
2023-03-07T12:29:55.612Z,8.90
2023-03-07T12:35:05.293Z,8.85
2023-03-07T12:40:21.247Z,8.75
2023-03-07T12:45:28.028Z,8.81
2023-03-07T12:50:58.969Z,8.80
2023-03-07T12:56:15.710Z,8.28
2023-03-07T13:01:24.216Z,8.05
2023-03-07T13:06:28.371Z,8.12
2023-03-07T13:11:35.825Z,7.89
2023-03-07T13:16:46.884Z,7.97
2023-03-07T13:21:49.836Z,8.05
2023-03-07T13:26:57.154Z,7.91
2023-03-07T13:32:00.066Z,7.51
2023-03-07T13:37:41.449Z,7.49
2023-03-07T13:42:49.503Z,7.36
2023-03-07T13:47:52.665Z,7.18
2023-03-07T13:52:55.632Z,6.85
2023-03-07T13:58:05.883Z,6.96
2023-03-07T14:03:28.668Z,6.86
2023-03-07T14:08:34.688Z,6.73
2023-03-07T14:13:46.831Z,6.74
2023-03-07T14:19:41.626Z,6.52
2023-03-07T14:25:08.166Z,6.46
2023-03-07T14:30:19.541Z,6.28
2023-03-07T14:35:43.869Z,6.20
2023-03-07T14:41:11.009Z,6.11
2023-03-07T14:46:46.287Z,6.05
2023-03-07T14:51:49.242Z,5.95
2023-03-07T14:56:54.370Z,6.02
2023-03-07T15:01:58.373Z,6.02
2023-03-07T15:07:04.922Z,5.91
2023-03-07T15:12:16.153Z,5.88
2023-03-07T15:17:24.354Z,5.82
2023-03-07T15:22:30.712Z,5.72
2023-03-07T15:27:34.543Z,5.74
2023-03-07T15:32:39.725Z,5.69
2023-03-07T15:38:00.277Z,5.69
2023-03-07T15:43:08.356Z,5.70
2023-03-07T15:48:34.246Z,5.69
2023-03-07T15:53:40.832Z,5.70
2023-03-07T15:58:45.627Z,5.72
2023-03-07T16:04:06.076Z,5.81
2023-03-07T16:09:17.715Z,5.81
2023-03-07T16:14:32.379Z,5.90
2023-03-07T16:19:35.462Z,5.80
2023-03-07T16:24:38.487Z,5.86
2023-03-07T16:29:41.683Z,5.90
2023-03-07T16:34:45.185Z,5.76
2023-03-07T16:39:48.210Z,5.74
2023-03-07T16:44:52.212Z,5.92
2023-03-07T16:49:55.321Z,5.98
2023-03-07T16:54:58.192Z,6.04
2023-03-07T17:00:01.078Z,6.07
2023-03-07T17:05:05.658Z,6.20
2023-03-07T17:10:08.952Z,6.17
2023-03-07T17:15:18.588Z,5.96
2023-03-07T17:20:21.597Z,5.96
2023-03-07T17:25:25.911Z,6.03
2023-03-07T17:30:31.131Z,6.14
2023-03-07T17:35:34.510Z,6.37
2023-03-07T17:40:39.032Z,6.39
2023-03-07T17:45:42.115Z,6.36
2023-03-07T17:50:45.236Z,6.32
2023-03-07T17:55:48.010Z,6.44
2023-03-07T18:00:50.903Z,6.35
2023-03-07T18:05:54.299Z,6.33
2023-03-07T18:11:08.259Z,6.30
2023-03-07T18:16:11.828Z,6.42
2023-03-07T18:21:22.424Z,6.43
2023-03-07T18:26:26.081Z,6.23
2023-03-07T18:31:29.495Z,6.17
2023-03-07T18:36:32.774Z,6.15
2023-03-07T18:41:35.673Z,6.14
2023-03-07T18:46:38.947Z,6.18
2023-03-07T18:51:44.486Z,6.23
2023-03-07T18:56:48.374Z,6.18
2023-03-07T19:01:51.804Z,6.04
2023-03-07T19:06:55.446Z,6.14
2023-03-07T19:11:58.487Z,6.07
2023-03-07T19:17:01.654Z,6.15
2023-03-07T19:22:04.610Z,6.13
2023-03-07T19:27:07.578Z,6.14
2023-03-07T19:32:10.619Z,6.18
2023-03-07T19:37:13.939Z,6.00
2023-03-07T19:42:16.733Z,6.08
2023-03-07T19:47:19.883Z,6.09
2023-03-07T19:52:23.056Z,6.01
2023-03-07T19:57:26.062Z,6.16
2023-03-07T20:02:29.883Z,6.13
2023-03-07T20:07:33.016Z,6.20
2023-03-07T20:12:35.826Z,6.01
2023-03-07T20:17:38.861Z,5.87
2023-03-07T20:22:42.683Z,6.04
2023-03-07T20:27:45.774Z,5.99
2023-03-07T20:32:48.827Z,5.95
2023-03-07T20:37:51.753Z,6.18
2023-03-07T20:42:54.475Z,6.24
2023-03-07T20:47:57.605Z,6.53
2023-03-07T20:53:00.696Z,6.45
2023-03-07T20:58:03.642Z,6.66
2023-03-07T21:03:10.204Z,6.43
2023-03-07T21:08:13.611Z,6.48
2023-03-07T21:13:16.584Z,6.43
2023-03-07T21:18:19.648Z,6.28
2023-03-07T21:23:22.737Z,6.49
2023-03-07T21:28:25.831Z,6.27
2023-03-07T21:33:29.746Z,6.21
2023-03-07T21:38:34.421Z,6.18
2023-03-07T21:43:37.760Z,6.17
2023-03-07T21:48:41.658Z,6.09
2023-03-07T21:53:44.673Z,6.03
2023-03-07T21:58:49.855Z,5.95
2023-03-07T22:03:53.942Z,5.77
2023-03-07T22:08:57.549Z,5.79
2023-03-07T22:14:00.431Z,5.86
2023-03-07T22:19:03.683Z,6.08
2023-03-07T22:24:06.476Z,6.28
2023-03-07T22:29:09.442Z,6.28
2023-03-07T22:34:12.288Z,6.49
2023-03-07T22:39:15.007Z,6.58
2023-03-07T22:44:19.818Z,6.66
2023-03-07T22:49:22.959Z,6.75
2023-03-07T22:54:25.748Z,6.69
2023-03-07T22:59:28.618Z,6.68
2023-03-07T23:04:31.752Z,6.77
2023-03-07T23:09:34.771Z,6.70
2023-03-07T23:14:38.310Z,6.71
2023-03-07T23:19:41.455Z,6.74
2023-03-07T23:24:44.432Z,6.73
2023-03-07T23:29:47.581Z,6.61
2023-03-07T23:34:50.869Z,6.49
2023-03-07T23:39:53.816Z,6.50
2023-03-07T23:44:56.835Z,6.58
2023-03-07T23:50:00.182Z,6.56
2023-03-07T23:55:03.188Z,6.46
